Terminal Aerodrome Forecast
Issued by NWS

Home | Current Version | Previous Version | Text Only | Print | Product List | Glossary On
Versions: 1 2 3 4 5 6 7 8 9 10 11 12 13 14 15 16 17
000
FTUS43 KGRB 291733
TAFMTW
TAF
KMTW 291733Z 2918/3018 02015G23KT P6SM BKN200
     FM300000 04014G22KT P6SM -RA OVC070
     FM300600 05014G21KT P6SM -RA OVC027
     FM300800 06014G22KT P6SM -RA OVC013
     FM301100 06013G22KT 5SM RA OVC007
     FM301500 06015G24KT 3SM RA OVC005=

USA.gov is the U.S. government's official web portal to all federal, state and local government web resources and services.